Saint Bonnet de Bellac- Haute Vienne - France
Donnes mto: dimanche, 01/07/2012
Date Horaire Temp. E. Hum. E. P.atmo. Pluie Vent Direction Direction Ensoleilleme Solaire P. de rose Temp au vent Rafales
01/07/2012 00:00 15,8 C 76 % 1016,7 hPa 0,0 mm 0,4 km/h (0 Bft) O 270 0 min 0 W/m 11,6 C 15,8 C 0,4 km/h (0 Bft)
01/07/2012 00:10 15,6 C 77 % 1017,2 hPa 0,0 mm 2,2 km/h (1 Bft) SO 225 0 min 0 W/m 11,6 C 15,6 C 8,3 km/h (2 Bft)
01/07/2012 00:20 15,5 C 77 % 1017,3 hPa 0,0 mm 2,9 km/h (1 Bft) NO 315 0 min 0 W/m 11,5 C 15,5 C 10,4 km/h (2 Bft)
01/07/2012 00:30 15,4 C 77 % 1017,4 hPa 0,0 mm 0,7 km/h (0 Bft) O 270 0 min 0 W/m 11,4 C 15,4 C 3,6 km/h (1 Bft)
01/07/2012 00:40 15,3 C 77 % 1017,6 hPa 0,0 mm 0,0 km/h (0 Bft) S-SO 202 0 min 0 W/m 11,3 C 15,3 C 0,0 km/h (0 Bft)
01/07/2012 00:50 15,1 C 78 % 1017,6 hPa 0,0 mm 0,4 km/h (0 Bft) O 270 0 min 0 W/m 11,3 C 15,1 C 4,0 km/h (1 Bft)
01/07/2012 01:00 14,9 C 79 % 1017,6 hPa 0,0 mm 0,4 km/h (0 Bft) O 270 0 min 0 W/m 11,3 C 14,9 C 3,2 km/h (1 Bft)
01/07/2012 01:10 14,9 C 79 % 1017,6 hPa 0,0 mm 3,6 km/h (1 Bft) O 270 0 min 0 W/m 11,3 C 14,9 C 4,0 km/h (1 Bft)
01/07/2012 01:20 14,8 C 79 % 1017,5 hPa 0,0 mm 0,4 km/h (0 Bft) O-SO 247 0 min 0 W/m 11,2 C 14,8 C 4,0 km/h (1 Bft)
01/07/2012 01:30 14,8 C 79 % 1017,5 hPa 0,0 mm 0,4 km/h (0 Bft) O-SO 247 0 min 0 W/m 11,2 C 14,8 C 2,9 km/h (1 Bft)
01/07/2012 01:40 14,8 C 79 % 1017,9 hPa 0,0 mm 0,4 km/h (0 Bft) O-SO 247 0 min 0 W/m 11,2 C 14,8 C 0,4 km/h (0 Bft)
01/07/2012 01:50 14,7 C 80 % 1018,2 hPa 0,0 mm 0,4 km/h (0 Bft) S-SO 202 0 min 0 W/m 11,3 C 14,7 C 4,0 km/h (1 Bft)
01/07/2012 02:00 14,6 C 80 % 1017,7 hPa 0,0 mm 0,0 km/h (0 Bft) O 270 0 min 0 W/m 11,2 C 14,6 C 0,0 km/h (0 Bft)
01/07/2012 02:10 14,6 C 80 % 1017,8 hPa 0,0 mm 1,1 km/h (1 Bft) SO 225 0 min 0 W/m 11,2 C 14,6 C 3,2 km/h (1 Bft)
01/07/2012 02:20 14,5 C 80 % 1017,9 hPa 0,0 mm 0,0 km/h (0 Bft) SO 225 0 min 0 W/m 11,1 C 14,5 C 0,0 km/h (0 Bft)
01/07/2012 02:30 14,4 C 81 % 1018,0 hPa 0,0 mm 0,0 km/h (0 Bft) O-SO 247 0 min 0 W/m 11,2 C 14,4 C 3,2 km/h (1 Bft)
01/07/2012 02:40 14,3 C 81 % 1017,9 hPa 0,0 mm 1,4 km/h (1 Bft) O-NO 292 0 min 0 W/m 11,1 C 14,3 C 7,9 km/h (2 Bft)
01/07/2012 02:50 14,2 C 82 % 1018,0 hPa 0,0 mm 0,0 km/h (0 Bft) S-SO 202 0 min 0 W/m 11,2 C 14,2 C 2,9 km/h (1 Bft)
01/07/2012 03:02 14,1 C 81 % 1017,9 hPa 0,0 mm 0,0 km/h (0 Bft) O 270 0 min 0 W/m 10,9 C 14,1 C 0,0 km/h (0 Bft)
01/07/2012 03:10 14,0 C 82 % 1018,3 hPa 0,0 mm 0,0 km/h (0 Bft) O 270 0 min 0 W/m 11,0 C 14,0 C 0,0 km/h (0 Bft)
01/07/2012 03:20 13,9 C 82 % 1018,8 hPa 0,0 mm 2,5 km/h (1 Bft) SO 225 0 min 0 W/m 10,9 C 13,9 C 4,7 km/h (1 Bft)
01/07/2012 03:30 13,8 C 82 % 1018,8 hPa 0,0 mm 1,1 km/h (1 Bft) O-SO 247 0 min 0 W/m 10,8 C 13,8 C 3,2 km/h (1 Bft)
01/07/2012 03:40 13,8 C 82 % 1018,6 hPa 0,0 mm 0,0 km/h (0 Bft) O 270 0 min 0 W/m 10,8 C 13,8 C 0,0 km/h (0 Bft)
01/07/2012 03:50 13,8 C 82 % 1018,7 hPa 0,0 mm 1,4 km/h (1 Bft) S-SO 202 0 min 0 W/m 10,8 C 13,8 C 4,3 km/h (1 Bft)
01/07/2012 04:00 13,6 C 83 % 1018,6 hPa 0,0 mm 1,1 km/h (1 Bft) O-SO 247 0 min 0 W/m 10,8 C 13,6 C 4,3 km/h (1 Bft)
01/07/2012 04:10 13,6 C 83 % 1018,4 hPa 0,0 mm 0,0 km/h (0 Bft) O 270 0 min 0 W/m 10,8 C 13,6 C 0,0 km/h (0 Bft)
01/07/2012 04:20 13,4 C 83 % 1018,5 hPa 0,0 mm 0,4 km/h (0 Bft) O 270 0 min 0 W/m 10,6 C 13,4 C 0,4 km/h (0 Bft)
01/07/2012 04:30 13,4 C 83 % 1018,5 hPa 0,0 mm 0,0 km/h (0 Bft) SO 225 0 min 0 W/m 10,6 C 13,4 C 3,6 km/h (1 Bft)
01/07/2012 04:40 13,2 C 84 % 1018,5 hPa 0,0 mm 0,7 km/h (0 Bft) SO 225 0 min 0 W/m 10,6 C 13,2 C 3,6 km/h (1 Bft)
01/07/2012 04:50 13,1 C 84 % 1018,6 hPa 0,0 mm 0,0 km/h (0 Bft) O-SO 247 0 min 0 W/m 10,5 C 13,1 C 0,0 km/h (0 Bft)
01/07/2012 05:00 13,1 C 84 % 1018,7 hPa 0,0 mm 0,0 km/h (0 Bft) SO 225 0 min 0 W/m 10,5 C 13,1 C 0,0 km/h (0 Bft)
01/07/2012 05:10 12,9 C 84 % 1018,7 hPa 0,0 mm 0,0 km/h (0 Bft) S-SO 202 0 min 0 W/m 10,3 C 12,9 C 0,0 km/h (0 Bft)
01/07/2012 05:20 12,8 C 84 % 1018,8 hPa 0,0 mm 0,0 km/h (0 Bft) S-SO 202 0 min 0 W/m 10,2 C 12,8 C 0,0 km/h (0 Bft)
01/07/2012 05:30 12,6 C 84 % 1018,7 hPa 0,0 mm 0,0 km/h (0 Bft) SO 225 0 min 0 W/m 10,0 C 12,6 C 0,0 km/h (0 Bft)
01/07/2012 05:40 12,5 C 85 % 1018,7 hPa 0,0 mm 0,0 km/h (0 Bft) SO 225 0 min 0 W/m 10,0 C 12,5 C 0,0 km/h (0 Bft)
01/07/2012 05:50 12,4 C 85 % 1018,4 hPa 0,0 mm 0,0 km/h (0 Bft) O 270 0 min 0 W/m 9,9 C 12,4 C 0,0 km/h (0 Bft)
01/07/2012 06:00 12,3 C 85 % 1018,6 hPa 0,0 mm 0,0 km/h (0 Bft) O 270 0 min 0 W/m 9,9 C 12,3 C 0,0 km/h (0 Bft)
01/07/2012 06:10 12,2 C 85 % 1018,4 hPa 0,0 mm 0,0 km/h (0 Bft) O 270 0 min 0 W/m 9,8 C 12,2 C 0,0 km/h (0 Bft)
01/07/2012 06:20 12,1 C 85 % 1018,5 hPa 0,0 mm 0,0 km/h (0 Bft) O-SO 247 0 min 0 W/m 9,7 C 12,1 C 0,0 km/h (0 Bft)
01/07/2012 06:30 11,9 C 85 % 1018,5 hPa 0,0 mm 0,0 km/h (0 Bft) O-SO 247 0 min 0 W/m 9,5 C 11,9 C 0,0 km/h (0 Bft)
01/07/2012 06:40 11,9 C 86 % 1018,8 hPa 0,0 mm 0,0 km/h (0 Bft) S-SO 202 0 min 0 W/m 9,6 C 11,9 C 0,0 km/h (0 Bft)
01/07/2012 06:50 11,8 C 86 % 1018,9 hPa 0,0 mm 0,0 km/h (0 Bft) S-SE 157 0 min 0 W/m 9,5 C 11,8 C 0,0 km/h (0 Bft)
01/07/2012 07:00 11,8 C 86 % 1018,9 hPa 0,0 mm 0,0 km/h (0 Bft) E-NE 67 0 min 0 W/m 9,5 C 11,8 C 0,0 km/h (0 Bft)
01/07/2012 07:10 11,8 C 86 % 1018,9 hPa 0,0 mm 0,0 km/h (0 Bft) E 90 0 min 0 W/m 9,5 C 11,8 C 0,0 km/h (0 Bft)
01/07/2012 07:20 11,7 C 87 % 1018,8 hPa 0,0 mm 0,0 km/h (0 Bft) E 90 0 min 0 W/m 9,6 C 11,7 C 0,0 km/h (0 Bft)
01/07/2012 07:30 11,8 C 87 % 1018,9 hPa 0,0 mm 0,0 km/h (0 Bft) E 90 0 min 0 W/m 9,7 C 11,8 C 0,0 km/h (0 Bft)
01/07/2012 07:40 11,8 C 87 % 1019,0 hPa 0,0 mm 0,0 km/h (0 Bft) E 90 0 min 0 W/m 9,7 C 11,8 C 0,0 km/h (0 Bft)
01/07/2012 07:50 12,0 C 87 % 1019,1 hPa 0,0 mm 0,0 km/h (0 Bft) E 90 0 min 0 W/m 9,9 C 12,0 C 0,0 km/h (0 Bft)
01/07/2012 08:00 12,2 C 87 % 1019,3 hPa 0,0 mm 0,0 km/h (0 Bft) SE 135 0 min 0 W/m 10,1 C 12,2 C 0,0 km/h (0 Bft)
01/07/2012 08:10 12,4 C 87 % 1019,6 hPa 0,0 mm 0,0 km/h (0 Bft) SE 135 0 min 0 W/m 10,3 C 12,4 C 0,0 km/h (0 Bft)
01/07/2012 08:20 12,6 C 87 % 1019,6 hPa 0,0 mm 0,0 km/h (0 Bft) SO 225 0 min 0 W/m 10,5 C 12,6 C 0,0 km/h (0 Bft)
01/07/2012 08:30 12,8 C 87 % 1019,6 hPa 0,0 mm 0,0 km/h (0 Bft) O-SO 247 0 min 0 W/m 10,7 C 12,8 C 0,0 km/h (0 Bft)
01/07/2012 08:40 13,1 C 86 % 1019,7 hPa 0,0 mm 0,0 km/h (0 Bft) S-SO 202 0 min 0 W/m 10,8 C 13,1 C 0,0 km/h (0 Bft)
01/07/2012 08:50 13,5 C 85 % 1019,9 hPa 0,0 mm 0,0 km/h (0 Bft) O-SO 247 0 min 0 W/m 11,0 C 13,5 C 0,0 km/h (0 Bft)
01/07/2012 09:00 13,8 C 84 % 1020,0 hPa 0,0 mm 1,8 km/h (1 Bft) S-SO 202 0 min 0 W/m 11,1 C 13,8 C 3,2 km/h (1 Bft)
01/07/2012 09:10 14,2 C 83 % 1020,0 hPa 0,0 mm 0,0 km/h (0 Bft) O-SO 247 0 min 0 W/m 11,4 C 14,2 C 0,0 km/h (0 Bft)
01/07/2012 09:20 14,8 C 80 % 1020,1 hPa 0,0 mm 2,2 km/h (1 Bft) SO 225 0 min 0 W/m 11,4 C 14,8 C 4,3 km/h (1 Bft)
01/07/2012 09:30 15,2 C 80 % 1020,0 hPa 0,0 mm 0,0 km/h (0 Bft) O-NO 292 0 min 0 W/m 11,8 C 15,2 C 0,0 km/h (0 Bft)
01/07/2012 09:40 15,6 C 78 % 1020,0 hPa 0,0 mm 0,4 km/h (0 Bft) O 270 0 min 0 W/m 11,8 C 15,6 C 0,4 km/h (0 Bft)
01/07/2012 09:50 15,9 C 76 % 1020,1 hPa 0,0 mm 0,0 km/h (0 Bft) O 270 0 min 0 W/m 11,7 C 15,9 C 0,0 km/h (0 Bft)
01/07/2012 10:00 16,1 C 76 % 1020,1 hPa 0,0 mm 1,8 km/h (1 Bft) O 270 0 min 0 W/m 11,9 C 16,1 C 4,3 km/h (1 Bft)
01/07/2012 10:10 16,4 C 73 % 1020,1 hPa 0,0 mm 0,0 km/h (0 Bft) O 270 0 min 0 W/m 11,5 C 16,4 C 0,0 km/h (0 Bft)
01/07/2012 10:20 16,8 C 72 % 1020,2 hPa 0,0 mm 0,4 km/h (0 Bft) O-SO 247 0 min 0 W/m 11,7 C 16,8 C 3,2 km/h (1 Bft)
01/07/2012 10:30 16,8 C 71 % 1020,3 hPa 0,0 mm 0,0 km/h (0 Bft) O-NO 292 0 min 0 W/m 11,5 C 16,8 C 0,0 km/h (0 Bft)
01/07/2012 10:40 16,9 C 71 % 1020,5 hPa 0,0 mm 0,0 km/h (0 Bft) S-SO 202 0 min 0 W/m 11,6 C 16,9 C 0,0 km/h (0 Bft)
01/07/2012 10:50 17,2 C 70 % 1020,4 hPa 0,0 mm 3,6 km/h (1 Bft) N-NO 337 0 min 0 W/m 11,7 C 17,2 C 3,6 km/h (1 Bft)
01/07/2012 11:00 17,4 C 67 % 1020,5 hPa 0,0 mm 0,0 km/h (0 Bft) O-SO 247 0 min 0 W/m 11,2 C 17,4 C 0,0 km/h (0 Bft)
01/07/2012 11:10 17,8 C 66 % 1020,4 hPa 0,0 mm 0,4 km/h (0 Bft) SO 225 0 min 0 W/m 11,4 C 17,8 C 0,4 km/h (0 Bft)
01/07/2012 11:20 17,9 C 66 % 1020,4 hPa 0,0 mm 2,5 km/h (1 Bft) S-SO 202 0 min 0 W/m 11,5 C 17,9 C 4,3 km/h (1 Bft)
01/07/2012 11:30 18,2 C 67 % 1020,5 hPa 0,0 mm 1,8 km/h (1 Bft) O 270 0 min 0 W/m 12,0 C 18,2 C 4,0 km/h (1 Bft)
01/07/2012 11:40 18,1 C 64 % 1020,5 hPa 0,0 mm 0,4 km/h (0 Bft) SO 225 0 min 0 W/m 11,2 C 18,1 C 1,4 km/h (1 Bft)
01/07/2012 11:50 18,1 C 63 % 1020,4 hPa 0,0 mm 1,8 km/h (1 Bft) O-SO 247 0 min 0 W/m 10,9 C 18,1 C 3,6 km/h (1 Bft)
01/07/2012 12:00 18,3 C 65 % 1020,3 hPa 0,0 mm 0,0 km/h (0 Bft) N-NO 337 0 min 0 W/m 11,6 C 18,3 C 0,0 km/h (0 Bft)
01/07/2012 12:10 18,6 C 64 % 1020,1 hPa 0,0 mm 6,1 km/h (2 Bft) O-NO 292 0 min 0 W/m 11,7 C 18,6 C 6,1 km/h (2 Bft)
01/07/2012 12:20 18,9 C 63 % 1020,1 hPa 0,0 mm 4,0 km/h (1 Bft) N-NO 337 0 min 0 W/m 11,7 C 18,9 C 11,2 km/h (2 Bft)
01/07/2012 12:30 19,1 C 62 % 1020,3 hPa 0,0 mm 0,0 km/h (0 Bft) S-SO 202 0 min 0 W/m 11,6 C 19,1 C 0,0 km/h (0 Bft)
01/07/2012 12:40 19,4 C 62 % 1020,3 hPa 0,0 mm 4,7 km/h (1 Bft) O-NO 292 0 min 0 W/m 11,9 C 19,4 C 4,7 km/h (1 Bft)
01/07/2012 12:50 19,8 C 60 % 1020,3 hPa 0,0 mm 3,6 km/h (1 Bft) SO 225 0 min 0 W/m 11,8 C 19,8 C 6,1 km/h (2 Bft)
01/07/2012 13:00 19,8 C 60 % 1020,4 hPa 0,0 mm 1,1 km/h (1 Bft) O 270 0 min 0 W/m 11,8 C 19,8 C 4,0 km/h (1 Bft)
01/07/2012 13:10 20,2 C 59 % 1020,2 hPa 0,0 mm 4,0 km/h (1 Bft) O-NO 292 0 min 0 W/m 11,9 C 20,2 C 9,0 km/h (2 Bft)
01/07/2012 13:20 20,4 C 54 % 1020,2 hPa 0,0 mm 1,8 km/h (1 Bft) O-SO 247 0 min 0 W/m 10,8 C 20,4 C 4,0 km/h (1 Bft)
01/07/2012 13:30 20,4 C 55 % 1020,3 hPa 0,0 mm 2,5 km/h (1 Bft) S-SO 202 0 min 0 W/m 11,1 C 20,4 C 3,6 km/h (1 Bft)
01/07/2012 13:40 20,2 C 55 % 1020,1 hPa 0,0 mm 3,6 km/h (1 Bft) S 180 0 min 0 W/m 10,9 C 20,2 C 6,5 km/h (2 Bft)
01/07/2012 13:50 20,5 C 52 % 1020,3 hPa 0,0 mm 4,0 km/h (1 Bft) SO 225 0 min 0 W/m 10,3 C 20,5 C 7,9 km/h (2 Bft)
01/07/2012 14:00 21,1 C 52 % 1020,3 hPa 0,0 mm 7,6 km/h (2 Bft) N-NO 337 0 min 0 W/m 10,9 C 21,1 C 8,3 km/h (2 Bft)
01/07/2012 14:10 21,8 C 52 % 1019,9 hPa 0,0 mm 1,8 km/h (1 Bft) N-NE 22 0 min 0 W/m 11,5 C 21,8 C 3,6 km/h (1 Bft)
01/07/2012 14:20 22,0 C 50 % 1020,1 hPa 0,0 mm 0,0 km/h (0 Bft) NO 315 0 min 0 W/m 11,1 C 22,0 C 0,0 km/h (0 Bft)
01/07/2012 14:30 22,3 C 50 % 1020,1 hPa 0,0 mm 3,6 km/h (1 Bft) NO 315 0 min 0 W/m 11,4 C 22,3 C 6,5 km/h (2 Bft)
01/07/2012 14:40 22,8 C 48 % 1020,1 hPa 0,0 mm 0,4 km/h (0 Bft) O 270 0 min 0 W/m 11,2 C 22,8 C 0,4 km/h (0 Bft)
01/07/2012 14:50 23,1 C 49 % 1019,9 hPa 0,0 mm 6,5 km/h (2 Bft) NO 315 0 min 0 W/m 11,8 C 23,1 C 12,6 km/h (3 Bft)
01/07/2012 15:00 23,4 C 47 % 1019,7 hPa 0,0 mm 5,0 km/h (1 Bft) O 270 0 min 0 W/m 11,4 C 23,4 C 11,9 km/h (2 Bft)
01/07/2012 15:10 23,2 C 47 % 1019,9 hPa 0,0 mm 1,4 km/h (1 Bft) N-NO 337 0 min 0 W/m 11,3 C 23,2 C 4,3 km/h (1 Bft)
01/07/2012 15:20 22,8 C 49 % 1020,0 hPa 0,0 mm 9,0 km/h (2 Bft) NO 315 0 min 0 W/m 11,5 C 22,8 C 15,5 km/h (3 Bft)
01/07/2012 15:30 22,9 C 49 % 1020,2 hPa 0,0 mm 5,0 km/h (1 Bft) N-NO 337 0 min 0 W/m 11,6 C 22,9 C 5,0 km/h (1 Bft)
01/07/2012 15:40 22,9 C 49 % 1020,2 hPa 0,0 mm 3,6 km/h (1 Bft) NO 315 0 min 0 W/m 11,6 C 22,9 C 7,9 km/h (2 Bft)
01/07/2012 15:50 22,9 C 49 % 1020,3 hPa 0,0 mm 3,6 km/h (1 Bft) NO 315 0 min 0 W/m 11,6 C 22,9 C 7,2 km/h (2 Bft)
01/07/2012 16:00 22,8 C 49 % 1020,3 hPa 0,0 mm 1,4 km/h (1 Bft) N 360 0 min 0 W/m 11,5 C 22,8 C 6,1 km/h (2 Bft)
01/07/2012 16:10 22,9 C 49 % 1020,3 hPa 0,0 mm 4,7 km/h (1 Bft) N-NE 22 0 min 0 W/m 11,6 C 22,9 C 8,6 km/h (2 Bft)
01/07/2012 16:20 23,1 C 48 % 1020,3 hPa 0,0 mm 4,0 km/h (1 Bft) NE 45 0 min 0 W/m 11,5 C 23,1 C 7,6 km/h (2 Bft)
01/07/2012 16:30 23,2 C 48 % 1020,2 hPa 0,0 mm 4,7 km/h (1 Bft) N-NO 337 0 min 0 W/m 11,6 C 23,2 C 13,0 km/h (3 Bft)
01/07/2012 16:40 22,9 C 48 % 1020,1 hPa 0,0 mm 0,0 km/h (0 Bft) NO 315 0 min 0 W/m 11,3 C 22,9 C 0,0 km/h (0 Bft)
01/07/2012 16:50 22,6 C 48 % 1020,0 hPa 0,0 mm 0,0 km/h (0 Bft) N 360 0 min 0 W/m 11,0 C 22,6 C 0,0 km/h (0 Bft)
01/07/2012 17:00 22,6 C 47 % 1019,8 hPa 0,0 mm 2,5 km/h (1 Bft) N-NO 337 0 min 0 W/m 10,7 C 22,6 C 6,8 km/h (2 Bft)
01/07/2012 17:10 22,5 C 48 % 1019,9 hPa 0,0 mm 3,2 km/h (1 Bft) N-NO 337 0 min 0 W/m 10,9 C 22,5 C 3,6 km/h (1 Bft)
01/07/2012 17:20 22,4 C 46 % 1020,0 hPa 0,0 mm 0,4 km/h (0 Bft) SO 225 0 min 0 W/m 10,2 C 22,4 C 0,4 km/h (0 Bft)
01/07/2012 17:30 22,1 C 47 % 1019,9 hPa 0,0 mm 0,0 km/h (0 Bft) O-SO 247 0 min 0 W/m 10,3 C 22,1 C 2,9 km/h (1 Bft)
01/07/2012 17:40 21,8 C 49 % 1019,8 hPa 0,0 mm 0,0 km/h (0 Bft) O-SO 247 0 min 0 W/m 10,6 C 21,8 C 0,0 km/h (0 Bft)
01/07/2012 17:50 21,6 C 49 % 1019,7 hPa 0,0 mm 0,0 km/h (0 Bft) O-SO 247 0 min 0 W/m 10,4 C 21,6 C 3,2 km/h (1 Bft)
01/07/2012 18:00 21,5 C 50 % 1019,5 hPa 0,0 mm 0,0 km/h (0 Bft) O-NO 292 0 min 0 W/m 10,6 C 21,5 C 3,2 km/h (1 Bft)
01/07/2012 18:10 21,3 C 50 % 1019,7 hPa 0,0 mm 2,9 km/h (1 Bft) O 270 0 min 0 W/m 10,4 C 21,3 C 2,9 km/h (1 Bft)
01/07/2012 18:20 21,0 C 51 % 1019,6 hPa 0,0 mm 0,0 km/h (0 Bft) O 270 0 min 0 W/m 10,5 C 21,0 C 3,6 km/h (1 Bft)
01/07/2012 18:30 20,9 C 49 % 1019,6 hPa 0,0 mm 0,7 km/h (0 Bft) O 270 0 min 0 W/m 9,8 C 20,9 C 3,2 km/h (1 Bft)
01/07/2012 18:40 21,2 C 51 % 1019,5 hPa 0,0 mm 0,0 km/h (0 Bft) SO 225 0 min 0 W/m 10,7 C 21,2 C 0,0 km/h (0 Bft)
01/07/2012 18:50 21,5 C 52 % 1019,5 hPa 0,0 mm 0,0 km/h (0 Bft) O-NO 292 0 min 0 W/m 11,2 C 21,5 C 0,0 km/h (0 Bft)
01/07/2012 19:00 21,6 C 50 % 1019,6 hPa 0,0 mm 1,8 km/h (1 Bft) O-NO 292 0 min 0 W/m 10,7 C 21,6 C 6,1 km/h (2 Bft)
01/07/2012 19:10 21,6 C 50 % 1019,7 hPa 0,0 mm 0,7 km/h (0 Bft) O-SO 247 0 min 0 W/m 10,7 C 21,6 C 4,0 km/h (1 Bft)
01/07/2012 19:20 21,4 C 51 % 1019,5 hPa 0,0 mm 0,0 km/h (0 Bft) NO 315 0 min 0 W/m 10,8 C 21,4 C 0,0 km/h (0 Bft)
01/07/2012 19:30 21,2 C 51 % 1019,4 hPa 0,0 mm 0,0 km/h (0 Bft) NO 315 0 min 0 W/m 10,7 C 21,2 C 0,0 km/h (0 Bft)
01/07/2012 19:40 21,2 C 51 % 1019,3 hPa 0,0 mm 0,0 km/h (0 Bft) NO 315 0 min 0 W/m 10,7 C 21,2 C 0,0 km/h (0 Bft)
01/07/2012 19:50 21,4 C 50 % 1019,3 hPa 0,0 mm 3,6 km/h (1 Bft) O-NO 292 0 min 0 W/m 10,5 C 21,4 C 4,3 km/h (1 Bft)
01/07/2012 20:00 21,6 C 50 % 1019,5 hPa 0,0 mm 1,1 km/h (1 Bft) NO 315 0 min 0 W/m 10,7 C 21,6 C 2,9 km/h (1 Bft)
01/07/2012 20:10 21,5 C 51 % 1019,7 hPa 0,0 mm 2,5 km/h (1 Bft) NO 315 0 min 0 W/m 10,9 C 21,5 C 4,3 km/h (1 Bft)
01/07/2012 20:20 21,3 C 51 % 1019,6 hPa 0,0 mm 0,0 km/h (0 Bft) NO 315 0 min 0 W/m 10,7 C 21,3 C 0,0 km/h (0 Bft)
01/07/2012 20:30 20,9 C 51 % 1019,9 hPa 0,0 mm 0,0 km/h (0 Bft) NO 315 0 min 0 W/m 10,4 C 20,9 C 0,0 km/h (0 Bft)
01/07/2012 20:40 20,6 C 50 % 1020,0 hPa 0,0 mm 0,0 km/h (0 Bft) NO 315 0 min 0 W/m 9,8 C 20,6 C 0,0 km/h (0 Bft)
01/07/2012 20:50 20,3 C 52 % 1020,1 hPa 0,0 mm 0,0 km/h (0 Bft) NO 315 0 min 0 W/m 10,1 C 20,3 C 0,0 km/h (0 Bft)
01/07/2012 21:00 20,0 C 52 % 1020,0 hPa 0,0 mm 0,0 km/h (0 Bft) NO 315 0 min 0 W/m 9,8 C 20,0 C 0,0 km/h (0 Bft)
01/07/2012 21:10 19,6 C 54 % 1020,1 hPa 0,0 mm 0,0 km/h (0 Bft) NO 315 0 min 0 W/m 10,0 C 19,6 C 0,0 km/h (0 Bft)
01/07/2012 21:20 19,2 C 55 % 1020,2 hPa 0,0 mm 0,0 km/h (0 Bft) NO 315 0 min 0 W/m 9,9 C 19,2 C 0,0 km/h (0 Bft)
01/07/2012 21:30 18,8 C 56 % 1020,2 hPa 0,0 mm 0,0 km/h (0 Bft) NO 315 0 min 0 W/m 9,8 C 18,8 C 0,0 km/h (0 Bft)
01/07/2012 21:40 18,4 C 57 % 1020,2 hPa 0,0 mm 0,0 km/h (0 Bft) NO 315 0 min 0 W/m 9,7 C 18,4 C 0,0 km/h (0 Bft)
01/07/2012 21:50 17,8 C 58 % 1020,2 hPa 0,0 mm 0,0 km/h (0 Bft) NO 315 0 min 0 W/m 9,4 C 17,8 C 0,0 km/h (0 Bft)
01/07/2012 22:00 17,3 C 59 % 1020,1 hPa 0,0 mm 0,0 km/h (0 Bft) NO 315 0 min 0 W/m 9,2 C 17,3 C 0,0 km/h (0 Bft)
01/07/2012 22:10 16,8 C 61 % 1020,2 hPa 0,0 mm 0,0 km/h (0 Bft) NO 315 0 min 0 W/m 9,2 C 16,8 C 0,0 km/h (0 Bft)
01/07/2012 22:20 16,3 C 64 % 1020,2 hPa 0,0 mm 0,0 km/h (0 Bft) O-SO 247 0 min 0 W/m 9,5 C 16,3 C 0,0 km/h (0 Bft)
01/07/2012 22:30 15,9 C 65 % 1020,2 hPa 0,0 mm 0,0 km/h (0 Bft) O-SO 247 0 min 0 W/m 9,3 C 15,9 C 0,0 km/h (0 Bft)
01/07/2012 22:40 15,5 C 66 % 1020,3 hPa 0,0 mm 0,0 km/h (0 Bft) O-SO 247 0 min 0 W/m 9,2 C 15,5 C 0,0 km/h (0 Bft)
01/07/2012 22:50 15,2 C 67 % 1020,2 hPa 0,0 mm 0,0 km/h (0 Bft) SO 225 0 min 0 W/m 9,1 C 15,2 C 0,0 km/h (0 Bft)
01/07/2012 23:00 15,0 C 69 % 1020,2 hPa 0,0 mm 4,7 km/h (1 Bft) S-SO 202 0 min 0 W/m 9,4 C 15,0 C 8,3 km/h (2 Bft)
01/07/2012 23:10 14,9 C 67 % 1020,3 hPa 0,0 mm 0,4 km/h (0 Bft) O 270 0 min 0 W/m 8,8 C 14,9 C 3,2 km/h (1 Bft)
01/07/2012 23:20 14,9 C 65 % 1020,3 hPa 0,0 mm 0,0 km/h (0 Bft) NO 315 0 min 0 W/m 8,4 C 14,9 C 0,0 km/h (0 Bft)
01/07/2012 23:30 14,9 C 64 % 1020,4 hPa 0,0 mm 2,2 km/h (1 Bft) O 270 0 min 0 W/m 8,2 C 14,9 C 4,3 km/h (1 Bft)
01/07/2012 23:40 14,9 C 64 % 1020,5 hPa 0,0 mm 0,4 km/h (0 Bft) N-NO 337 0 min 0 W/m 8,2 C 14,9 C 0,4 km/h (0 Bft)
01/07/2012 23:50 14,9 C 64 % 1020,6 hPa 0,0 mm 0,4 km/h (0 Bft) O-NO 292 0 min 0 W/m 8,2 C 14,9 C 0,4 km/h (0 Bft)
_ Min-Heure 07:20 17:20 00:00 - 23:20 - - - - 23:50 07:20 23:20
Minimum _ 11,7 C 46 % 1016,7 hPa - 0,0 km/h (0 Bft) - - - - 8,2 C 11,7 C 0,0 km/h (0 Bft)
_ Max-Heure 15:00 08:30 23:50 23:50 15:20 - - 23:50 23:50 11:30 15:00 15:20
Maximum _ 23,4 C 87 % 1020,6 hPa 0,0 mm 9,0 km/h
NO (2 Bft)
- - 0 min 0 W/m 12,0 C 23,4 C 15,5 km/h
NO (3 Bft)
Moyenne _ 17,3 C 67 % 1019,5 hPa #0,0 mm 1,1 km/h (1 Bft) O - #0 min. 0 W/m 10,7 C 17,3 C 2,6 km/h (1 Bft)
Saint Bonnet de Bellac- Haute Vienne - France